Cape Girardeau Regional Airport
KCGI : now visible

Aeroporto :











RITROVATECI SU...

 
LOGIN :

Iscrizione | Disclaimer

   EN    FR    IT 

 









Sommario :    VFR   VFR Marginale   IFR   IFR Intensivo   IFR Molto Intensivo
Visibilità : 
Base nubi : 
>= 8 km
>= 3000ft
5 / 8 km
1000 / 3000 ft
1500m / 5 km
500 / 1000 ft
800 / 1500m
200 / 500 ft
< 800m
< 200 ft
Simboli :   Temporali  Nebbia  Neve Forte  Precipitazioni Forti  Vento > 20 kt






- Altitudine del aeroporto : 342 ft
- Codice IATA : CGI


KCGI - Cape Girardeau Regional

ULTIMO METAR :
  • 272053Z 06007KT 6SM HZ CLR 06/02 A3001 RMK AO2 SLP162 T00560017 55002

METARs OBSOLETI :
  • 271953Z 01006KT 7SM BKN100 06/01 A3000 RMK AO2 SLP161 T00560011
  • 271853Z 01004KT 5SM HZ SCT007 BKN100 04/01 A3001 RMK AO2 SLP163 T00390006
  • 271753Z VRB03KT 4SM BR OVC006 02/00 A3003 RMK AO2 SLP171 T00220000 10022 20000 58002

TAF KCGI
Valido dal 27 a 19 ore il 28 a 18 ore UTC


271904Z 2719/2818 VRB04KT P6SM SCT007 BKN070
TEMPO 2719/2720 5SM HZ BKN007
FM280300 02004KT P6SM BKN020
FM281100 02005KT 4SM BR BKN009



MetMap, La meteo Aeronautica in un colpo d'occhio ! - Copyright ORBIFLY Dicembre 2007 - Disclaimer

ORBIFLY MET'MAP TEAM :

Programmazione e sviluppo : Alexandra Zaïnal
Concezione : Baudouin d'Aumeries
Aiuto per la programmazione : Marc-Olivier Méhu
Supporto tecnico e logistico : Manuel Goepfert
Aiuto per la traduzione : Arnaldo La Scala

Contatto : metmap@orbifly.com




FONTI E CREDITI :

   NOAA       Earth
Advisory